sensor_id;sensor_type;location;lat;lon;timestamp;P1;durP1;ratioP1;P2;durP2;ratioP2
30872;SDS011;17579;42.690;2.586;2023-12-29T00:03:08;5.57;;;5.07;;
30872;SDS011;17579;42.690;2.586;2023-12-29T00:06:19;4.90;;;4.43;;
30872;SDS011;17579;42.690;2.586;2023-12-29T00:08:51;4.90;;;4.50;;
30872;SDS011;17579;42.690;2.586;2023-12-29T00:11:47;7.85;;;4.05;;
30872;SDS011;17579;42.690;2.586;2023-12-29T00:14:42;4.65;;;4.07;;
30872;SDS011;17579;42.690;2.586;2023-12-29T00:20:33;5.13;;;3.90;;
30872;SDS011;17579;42.690;2.586;2023-12-29T00:23:04;4.40;;;4.00;;
30872;SDS011;17579;42.690;2.586;2023-12-29T00:25:41;4.75;;;4.18;;
30872;SDS011;17579;42.690;2.586;2023-12-29T00:28:38;5.43;;;4.15;;
30872;SDS011;17579;42.690;2.586;2023-12-29T00:31:38;4.65;;;3.83;;
30872;SDS011;17579;42.690;2.586;2023-12-29T00:34:15;4.20;;;3.85;;
30872;SDS011;17579;42.690;2.586;2023-12-29T00:37:02;7.32;;;4.93;;
30872;SDS011;17579;42.690;2.586;2023-12-29T00:39:39;5.15;;;4.20;;
30872;SDS011;17579;42.690;2.586;2023-12-29T00:42:08;4.00;;;3.70;;
30872;SDS011;17579;42.690;2.586;2023-12-29T00:44:47;6.95;;;3.95;;
30872;SDS011;17579;42.690;2.586;2023-12-29T00:47:36;5.88;;;4.55;;
30872;SDS011;17579;42.690;2.586;2023-12-29T00:50:07;5.90;;;4.32;;
30872;SDS011;17579;42.690;2.586;2023-12-29T00:55:55;5.05;;;4.30;;
30872;SDS011;17579;42.690;2.586;2023-12-29T00:58:49;4.80;;;4.40;;
30872;SDS011;17579;42.690;2.586;2023-12-29T01:01:24;4.78;;;4.07;;
30872;SDS011;17579;42.690;2.586;2023-12-29T01:07:23;5.80;;;4.65;;
30872;SDS011;17579;42.690;2.586;2023-12-29T01:07:25;5.00;;;3.97;;
30872;SDS011;17579;42.690;2.586;2023-12-29T01:10:16;6.00;;;4.43;;
30872;SDS011;17579;42.690;2.586;2023-12-29T01:16:31;5.07;;;4.57;;
30872;SDS011;17579;42.690;2.586;2023-12-29T01:28:08;5.25;;;4.05;;
30872;SDS011;17579;42.690;2.586;2023-12-29T01:31:17;4.50;;;3.75;;
30872;SDS011;17579;42.690;2.586;2023-12-29T01:33:53;4.43;;;3.90;;
30872;SDS011;17579;42.690;2.586;2023-12-29T01:36:21;4.28;;;3.88;;
30872;SDS011;17579;42.690;2.586;2023-12-29T01:38:54;4.05;;;3.65;;
30872;SDS011;17579;42.690;2.586;2023-12-29T01:41:43;5.82;;;4.03;;
30872;SDS011;17579;42.690;2.586;2023-12-29T01:44:51;5.20;;;3.72;;
30872;SDS011;17579;42.690;2.586;2023-12-29T01:47:18;4.63;;;3.75;;
30872;SDS011;17579;42.690;2.586;2023-12-29T01:49:57;3.72;;;3.42;;
30872;SDS011;17579;42.690;2.586;2023-12-29T01:52:40;5.78;;;3.90;;
30872;SDS011;17579;42.690;2.586;2023-12-29T01:55:47;5.35;;;3.70;;
30872;SDS011;17579;42.690;2.586;2023-12-29T01:58:23;3.83;;;3.53;;
30872;SDS011;17579;42.690;2.586;2023-12-29T02:01:03;5.72;;;4.55;;
30872;SDS011;17579;42.690;2.586;2023-12-29T02:03:56;4.75;;;4.07;;
30872;SDS011;17579;42.690;2.586;2023-12-29T02:12:43;4.20;;;3.83;;
30872;SDS011;17579;42.690;2.586;2023-12-29T02:15:27;4.40;;;3.95;;
30872;SDS011;17579;42.690;2.586;2023-12-29T02:18:06;4.90;;;4.43;;
30872;SDS011;17579;42.690;2.586;2023-12-29T02:20:42;4.80;;;4.32;;
30872;SDS011;17579;42.690;2.586;2023-12-29T02:23:21;6.03;;;4.70;;
30872;SDS011;17579;42.690;2.586;2023-12-29T02:26:07;5.93;;;4.70;;
30872;SDS011;17579;42.690;2.586;2023-12-29T02:32:03;5.75;;;4.40;;
30872;SDS011;17579;42.690;2.586;2023-12-29T02:32:18;4.85;;;4.35;;
30872;SDS011;17579;42.690;2.586;2023-12-29T02:37:50;6.45;;;4.80;;
30872;SDS011;17579;42.690;2.586;2023-12-29T02:40:28;5.32;;;4.80;;
30872;SDS011;17579;42.690;2.586;2023-12-29T02:43:17;5.75;;;5.13;;
30872;SDS011;17579;42.690;2.586;2023-12-29T02:46:01;6.40;;;5.53;;
30872;SDS011;17579;42.690;2.586;2023-12-29T02:49:06;6.15;;;5.20;;
30872;SDS011;17579;42.690;2.586;2023-12-29T02:51:40;6.43;;;5.00;;
30872;SDS011;17579;42.690;2.586;2023-12-29T02:54:28;6.88;;;5.13;;
30872;SDS011;17579;42.690;2.586;2023-12-29T02:58:17;5.18;;;4.43;;
30872;SDS011;17579;42.690;2.586;2023-12-29T03:01:00;5.93;;;5.20;;
30872;SDS011;17579;42.690;2.586;2023-12-29T03:04:00;6.00;;;5.30;;
30872;SDS011;17579;42.690;2.586;2023-12-29T03:07:30;6.22;;;5.35;;
30872;SDS011;17579;42.690;2.586;2023-12-29T03:09:54;6.60;;;5.38;;
30872;SDS011;17579;42.690;2.586;2023-12-29T03:12:43;6.47;;;5.82;;
30872;SDS011;17579;42.690;2.586;2023-12-29T03:16:47;7.10;;;5.45;;
30872;SDS011;17579;42.690;2.586;2023-12-29T03:18:21;7.40;;;5.32;;
30872;SDS011;17579;42.690;2.586;2023-12-29T03:21:15;7.13;;;5.78;;
30872;SDS011;17579;42.690;2.586;2023-12-29T03:27:15;6.13;;;5.55;;
30872;SDS011;17579;42.690;2.586;2023-12-29T03:30:23;6.72;;;6.13;;
30872;SDS011;17579;42.690;2.586;2023-12-29T03:33:10;7.00;;;6.05;;
30872;SDS011;17579;42.690;2.586;2023-12-29T03:36:04;6.43;;;5.80;;
30872;SDS011;17579;42.690;2.586;2023-12-29T03:39:38;7.30;;;5.97;;
30872;SDS011;17579;42.690;2.586;2023-12-29T03:42:23;11.55;;;6.78;;
30872;SDS011;17579;42.690;2.586;2023-12-29T03:49:02;6.45;;;5.85;;
30872;SDS011;17579;42.690;2.586;2023-12-29T03:51:35;6.93;;;5.80;;
30872;SDS011;17579;42.690;2.586;2023-12-29T03:57:55;8.43;;;6.00;;
30872;SDS011;17579;42.690;2.586;2023-12-29T04:00:38;6.47;;;5.78;;
30872;SDS011;17579;42.690;2.586;2023-12-29T04:03:48;6.28;;;5.35;;
30872;SDS011;17579;42.690;2.586;2023-12-29T04:06:49;7.57;;;6.22;;
30872;SDS011;17579;42.690;2.586;2023-12-29T04:11:00;6.22;;;5.63;;
30872;SDS011;17579;42.690;2.586;2023-12-29T04:12:23;7.05;;;6.20;;
30872;SDS011;17579;42.690;2.586;2023-12-29T04:26:07;6.95;;;6.05;;
30872;SDS011;17579;42.690;2.586;2023-12-29T04:35:16;7.18;;;6.50;;
30872;SDS011;17579;42.690;2.586;2023-12-29T04:37:55;6.68;;;5.97;;
30872;SDS011;17579;42.690;2.586;2023-12-29T04:41:00;6.90;;;6.20;;
30872;SDS011;17579;42.690;2.586;2023-12-29T04:43:40;10.10;;;6.22;;
30872;SDS011;17579;42.690;2.586;2023-12-29T04:48:58;6.72;;;6.05;;
30872;SDS011;17579;42.690;2.586;2023-12-29T04:54:43;6.25;;;5.65;;
30872;SDS011;17579;42.690;2.586;2023-12-29T04:57:39;7.18;;;6.15;;
30872;SDS011;17579;42.690;2.586;2023-12-29T05:00:34;7.80;;;6.05;;
30872;SDS011;17579;42.690;2.586;2023-12-29T05:06:35;6.88;;;6.22;;
30872;SDS011;17579;42.690;2.586;2023-12-29T05:09:31;6.97;;;5.75;;
30872;SDS011;17579;42.690;2.586;2023-12-29T05:12:34;8.05;;;5.97;;
30872;SDS011;17579;42.690;2.586;2023-12-29T05:15:53;6.78;;;5.90;;
30872;SDS011;17579;42.690;2.586;2023-12-29T05:18:49;7.75;;;6.75;;
30872;SDS011;17579;42.690;2.586;2023-12-29T05:21:43;7.30;;;6.60;;
30872;SDS011;17579;42.690;2.586;2023-12-29T05:24:22;8.27;;;6.28;;
30872;SDS011;17579;42.690;2.586;2023-12-29T05:27:27;10.43;;;6.30;;
30872;SDS011;17579;42.690;2.586;2023-12-29T05:30:20;7.13;;;6.43;;
30872;SDS011;17579;42.690;2.586;2023-12-29T05:36:04;6.72;;;5.68;;
30872;SDS011;17579;42.690;2.586;2023-12-29T05:38:39;6.57;;;5.85;;
30872;SDS011;17579;42.690;2.586;2023-12-29T05:44:20;6.97;;;6.32;;
30872;SDS011;17579;42.690;2.586;2023-12-29T05:47:11;7.80;;;6.50;;
30872;SDS011;17579;42.690;2.586;2023-12-29T05:49:40;7.28;;;6.57;;
30872;SDS011;17579;42.690;2.586;2023-12-29T05:53:00;7.70;;;7.00;;
30872;SDS011;17579;42.690;2.586;2023-12-29T05:58:10;8.18;;;7.13;;
30872;SDS011;17579;42.690;2.586;2023-12-29T05:58:36;8.32;;;7.43;;
30872;SDS011;17579;42.690;2.586;2023-12-29T06:02:21;8.57;;;7.50;;
30872;SDS011;17579;42.690;2.586;2023-12-29T06:04:23;7.90;;;6.93;;
30872;SDS011;17579;42.690;2.586;2023-12-29T06:07:15;7.40;;;6.70;;
30872;SDS011;17579;42.690;2.586;2023-12-29T06:10:04;7.32;;;6.45;;
30872;SDS011;17579;42.690;2.586;2023-12-29T06:13:38;5.82;;;5.28;;
30872;SDS011;17579;42.690;2.586;2023-12-29T06:16:19;6.03;;;5.40;;
30872;SDS011;17579;42.690;2.586;2023-12-29T06:19:39;7.90;;;6.00;;
30872;SDS011;17579;42.690;2.586;2023-12-29T06:25:16;7.38;;;6.18;;
30872;SDS011;17579;42.690;2.586;2023-12-29T06:28:03;7.50;;;5.93;;
30872;SDS011;17579;42.690;2.586;2023-12-29T06:33:52;8.38;;;7.63;;
30872;SDS011;17579;42.690;2.586;2023-12-29T06:35:54;6.22;;;5.50;;
30872;SDS011;17579;42.690;2.586;2023-12-29T06:37:15;9.45;;;8.55;;
30872;SDS011;17579;42.690;2.586;2023-12-29T06:42:56;9.82;;;8.00;;
30872;SDS011;17579;42.690;2.586;2023-12-29T06:43:10;8.95;;;8.05;;
30872;SDS011;17579;42.690;2.586;2023-12-29T06:46:30;7.70;;;7.00;;
30872;SDS011;17579;42.690;2.586;2023-12-29T06:52:29;6.78;;;6.18;;
30872;SDS011;17579;42.690;2.586;2023-12-29T06:55:29;7.03;;;6.32;;
30872;SDS011;17579;42.690;2.586;2023-12-29T06:58:47;6.25;;;5.68;;
30872;SDS011;17579;42.690;2.586;2023-12-29T07:01:39;7.32;;;6.15;;
30872;SDS011;17579;42.690;2.586;2023-12-29T07:04:15;6.70;;;6.10;;
30872;SDS011;17579;42.690;2.586;2023-12-29T07:06:52;7.63;;;6.55;;
30872;SDS011;17579;42.690;2.586;2023-12-29T07:13:12;6.78;;;5.97;;
30872;SDS011;17579;42.690;2.586;2023-12-29T07:15:56;12.65;;;6.40;;
30872;SDS011;17579;42.690;2.586;2023-12-29T07:27:44;8.00;;;6.35;;
30872;SDS011;17579;42.690;2.586;2023-12-29T07:30:27;6.93;;;6.22;;
30872;SDS011;17579;42.690;2.586;2023-12-29T07:33:24;7.85;;;5.75;;
30872;SDS011;17579;42.690;2.586;2023-12-29T08:02:20;8.05;;;6.45;;
30872;SDS011;17579;42.690;2.586;2023-12-29T08:15:09;7.10;;;6.18;;
30872;SDS011;17579;42.690;2.586;2023-12-29T08:18:45;9.55;;;7.10;;
30872;SDS011;17579;42.690;2.586;2023-12-29T08:22:19;7.65;;;6.95;;
30872;SDS011;17579;42.690;2.586;2023-12-29T08:41:20;7.15;;;6.45;;
30872;SDS011;17579;42.690;2.586;2023-12-29T08:44:15;7.28;;;6.60;;
30872;SDS011;17579;42.690;2.586;2023-12-29T08:50:10;8.48;;;7.07;;
30872;SDS011;17579;42.690;2.586;2023-12-29T08:52:36;7.50;;;6.80;;
30872;SDS011;17579;42.690;2.586;2023-12-29T08:55:16;8.20;;;6.32;;
30872;SDS011;17579;42.690;2.586;2023-12-29T08:57:57;7.90;;;7.10;;
30872;SDS011;17579;42.690;2.586;2023-12-29T09:00:25;5.15;;;4.75;;
30872;SDS011;17579;42.690;2.586;2023-12-29T09:03:00;9.15;;;7.13;;
30872;SDS011;17579;42.690;2.586;2023-12-29T09:05:37;10.13;;;7.32;;
30872;SDS011;17579;42.690;2.586;2023-12-29T09:08:16;8.52;;;7.68;;
30872;SDS011;17579;42.690;2.586;2023-12-29T09:17:19;8.93;;;6.90;;
30872;SDS011;17579;42.690;2.586;2023-12-29T09:19:56;8.88;;;6.88;;
30872;SDS011;17579;42.690;2.586;2023-12-29T09:22:47;10.02;;;7.03;;
30872;SDS011;17579;42.690;2.586;2023-12-29T09:25:32;9.23;;;8.23;;
30872;SDS011;17579;42.690;2.586;2023-12-29T09:28:10;9.25;;;7.07;;
30872;SDS011;17579;42.690;2.586;2023-12-29T09:31:21;8.20;;;7.28;;
30872;SDS011;17579;42.690;2.586;2023-12-29T09:34:05;11.90;;;8.40;;
30872;SDS011;17579;42.690;2.586;2023-12-29T09:36:36;9.38;;;8.27;;
30872;SDS011;17579;42.690;2.586;2023-12-29T09:41:53;10.20;;;9.07;;
30872;SDS011;17579;42.690;2.586;2023-12-29T09:44:49;8.60;;;7.80;;
30872;SDS011;17579;42.690;2.586;2023-12-29T09:47:46;8.50;;;7.70;;
30872;SDS011;17579;42.690;2.586;2023-12-29T09:53:46;10.65;;;9.15;;
30872;SDS011;17579;42.690;2.586;2023-12-29T09:56:37;10.23;;;7.88;;
30872;SDS011;17579;42.690;2.586;2023-12-29T09:59:36;7.30;;;6.60;;
30872;SDS011;17579;42.690;2.586;2023-12-29T10:02:19;8.65;;;7.78;;
30872;SDS011;17579;42.690;2.586;2023-12-29T10:04:53;7.13;;;6.30;;
30872;SDS011;17579;42.690;2.586;2023-12-29T10:07:51;7.50;;;6.80;;
30872;SDS011;17579;42.690;2.586;2023-12-29T10:10:35;7.15;;;6.32;;
30872;SDS011;17579;42.690;2.586;2023-12-29T10:16:50;10.02;;;7.00;;
30872;SDS011;17579;42.690;2.586;2023-12-29T10:19:50;8.85;;;7.43;;
30872;SDS011;17579;42.690;2.586;2023-12-29T10:29:11;11.38;;;8.95;;
30872;SDS011;17579;42.690;2.586;2023-12-29T10:32:09;9.05;;;8.15;;
30872;SDS011;17579;42.690;2.586;2023-12-29T10:34:40;11.20;;;9.15;;
30872;SDS011;17579;42.690;2.586;2023-12-29T10:37:14;11.45;;;8.88;;
30872;SDS011;17579;42.690;2.586;2023-12-29T10:43:30;13.57;;;8.00;;
30872;SDS011;17579;42.690;2.586;2023-12-29T10:46:34;7.97;;;7.32;;
30872;SDS011;17579;42.690;2.586;2023-12-29T10:49:36;10.40;;;7.90;;
30872;SDS011;17579;42.690;2.586;2023-12-29T10:52:27;8.15;;;7.13;;
30872;SDS011;17579;42.690;2.586;2023-12-29T10:57:59;8.90;;;7.75;;
30872;SDS011;17579;42.690;2.586;2023-12-29T11:01:00;9.05;;;7.72;;
30872;SDS011;17579;42.690;2.586;2023-12-29T11:04:05;8.45;;;7.65;;
30872;SDS011;17579;42.690;2.586;2023-12-29T11:07:17;10.95;;;8.68;;
30872;SDS011;17579;42.690;2.586;2023-12-29T11:10:43;9.25;;;8.10;;
30872;SDS011;17579;42.690;2.586;2023-12-29T11:13:31;10.80;;;7.97;;
30872;SDS011;17579;42.690;2.586;2023-12-29T11:16:50;9.05;;;8.15;;
30872;SDS011;17579;42.690;2.586;2023-12-29T11:22:27;9.07;;;8.13;;
30872;SDS011;17579;42.690;2.586;2023-12-29T11:28:40;8.30;;;7.40;;
30872;SDS011;17579;42.690;2.586;2023-12-29T11:31:33;8.38;;;7.15;;
30872;SDS011;17579;42.690;2.586;2023-12-29T11:36:00;8.10;;;6.93;;
30872;SDS011;17579;42.690;2.586;2023-12-29T11:41:05;8.02;;;7.03;;
30872;SDS011;17579;42.690;2.586;2023-12-29T11:44:02;7.97;;;7.15;;
30872;SDS011;17579;42.690;2.586;2023-12-29T11:46:56;8.43;;;7.72;;
30872;SDS011;17579;42.690;2.586;2023-12-29T11:56:14;9.00;;;8.20;;
30872;SDS011;17579;42.690;2.586;2023-12-29T11:59:46;8.05;;;7.18;;
30872;SDS011;17579;42.690;2.586;2023-12-29T12:05:44;8.80;;;7.90;;
30872;SDS011;17579;42.690;2.586;2023-12-29T12:20:27;8.13;;;6.72;;
30872;SDS011;17579;42.690;2.586;2023-12-29T12:21:46;7.57;;;6.88;;
30872;SDS011;17579;42.690;2.586;2023-12-29T12:30:31;9.15;;;7.00;;
30872;SDS011;17579;42.690;2.586;2023-12-29T12:33:52;7.65;;;6.90;;
30872;SDS011;17579;42.690;2.586;2023-12-29T12:36:47;6.80;;;6.20;;
30872;SDS011;17579;42.690;2.586;2023-12-29T12:39:37;6.90;;;6.30;;
30872;SDS011;17579;42.690;2.586;2023-12-29T12:45:42;6.88;;;6.22;;
30872;SDS011;17579;42.690;2.586;2023-12-29T12:48:51;7.28;;;6.57;;
30872;SDS011;17579;42.690;2.586;2023-12-29T12:51:35;6.63;;;6.00;;
30872;SDS011;17579;42.690;2.586;2023-12-29T12:54:27;6.05;;;5.55;;
30872;SDS011;17579;42.690;2.586;2023-12-29T12:57:10;7.28;;;6.20;;
30872;SDS011;17579;42.690;2.586;2023-12-29T12:59:57;6.65;;;6.05;;
30872;SDS011;17579;42.690;2.586;2023-12-29T13:02:49;6.32;;;5.82;;
30872;SDS011;17579;42.690;2.586;2023-12-29T13:08:45;7.20;;;5.65;;
30872;SDS011;17579;42.690;2.586;2023-12-29T13:08:59;6.70;;;5.85;;
30872;SDS011;17579;42.690;2.586;2023-12-29T13:14:27;7.22;;;6.53;;
30872;SDS011;17579;42.690;2.586;2023-12-29T13:17:06;8.13;;;6.47;;
30872;SDS011;17579;42.690;2.586;2023-12-29T13:22:21;7.28;;;6.57;;
30872;SDS011;17579;42.690;2.586;2023-12-29T13:23:54;6.63;;;5.60;;
30872;SDS011;17579;42.690;2.586;2023-12-29T13:26:23;6.22;;;5.63;;
30872;SDS011;17579;42.690;2.586;2023-12-29T13:29:27;6.85;;;5.50;;
30872;SDS011;17579;42.690;2.586;2023-12-29T13:32:32;6.38;;;5.65;;
30872;SDS011;17579;42.690;2.586;2023-12-29T13:35:18;6.18;;;5.57;;
30872;SDS011;17579;42.690;2.586;2023-12-29T13:38:18;7.22;;;5.70;;
30872;SDS011;17579;42.690;2.586;2023-12-29T13:41:10;7.72;;;6.60;;
30872;SDS011;17579;42.690;2.586;2023-12-29T13:46:53;6.18;;;5.55;;
30872;SDS011;17579;42.690;2.586;2023-12-29T13:49:42;5.60;;;5.10;;
30872;SDS011;17579;42.690;2.586;2023-12-29T13:52:56;6.95;;;5.50;;
30872;SDS011;17579;42.690;2.586;2023-12-29T13:55:27;7.80;;;6.05;;
30872;SDS011;17579;42.690;2.586;2023-12-29T13:58:33;5.95;;;5.35;;
30872;SDS011;17579;42.690;2.586;2023-12-29T14:01:33;6.43;;;5.82;;
30872;SDS011;17579;42.690;2.586;2023-12-29T14:07:29;6.45;;;5.85;;
30872;SDS011;17579;42.690;2.586;2023-12-29T14:13:30;8.00;;;6.82;;
30872;SDS011;17579;42.690;2.586;2023-12-29T14:16:15;9.75;;;7.30;;
30872;SDS011;17579;42.690;2.586;2023-12-29T14:19:12;9.27;;;7.88;;
30872;SDS011;17579;42.690;2.586;2023-12-29T14:22:20;8.70;;;7.90;;
30872;SDS011;17579;42.690;2.586;2023-12-29T14:25:31;12.13;;;7.78;;
30872;SDS011;17579;42.690;2.586;2023-12-29T14:31:37;9.10;;;7.60;;
30872;SDS011;17579;42.690;2.586;2023-12-29T14:35:17;9.80;;;8.32;;
30872;SDS011;17579;42.690;2.586;2023-12-29T14:41:04;10.35;;;9.10;;
30872;SDS011;17579;42.690;2.586;2023-12-29T14:44:34;9.98;;;7.55;;
30872;SDS011;17579;42.690;2.586;2023-12-29T14:47:25;9.57;;;8.15;;
30872;SDS011;17579;42.690;2.586;2023-12-29T14:50:14;7.50;;;6.65;;
30872;SDS011;17579;42.690;2.586;2023-12-29T14:52:51;8.38;;;6.80;;
30872;SDS011;17579;42.690;2.586;2023-12-29T14:56:04;7.40;;;6.70;;
30872;SDS011;17579;42.690;2.586;2023-12-29T15:10:08;6.15;;;5.40;;
30872;SDS011;17579;42.690;2.586;2023-12-29T15:12:51;6.88;;;5.60;;
30872;SDS011;17579;42.690;2.586;2023-12-29T15:15:45;6.50;;;5.90;;
30872;SDS011;17579;42.690;2.586;2023-12-29T15:25:12;5.95;;;5.45;;
30872;SDS011;17579;42.690;2.586;2023-12-29T15:28:11;6.05;;;5.40;;
30872;SDS011;17579;42.690;2.586;2023-12-29T15:31:59;6.47;;;5.10;;
30872;SDS011;17579;42.690;2.586;2023-12-29T15:34:29;6.28;;;5.38;;
30872;SDS011;17579;42.690;2.586;2023-12-29T15:37:23;6.82;;;6.20;;
30872;SDS011;17579;42.690;2.586;2023-12-29T15:39:57;6.88;;;6.07;;
30872;SDS011;17579;42.690;2.586;2023-12-29T15:43:06;7.68;;;6.00;;
30872;SDS011;17579;42.690;2.586;2023-12-29T15:46:31;6.88;;;5.70;;
30872;SDS011;17579;42.690;2.586;2023-12-29T15:49:45;6.55;;;5.85;;
30872;SDS011;17579;42.690;2.586;2023-12-29T15:55:15;6.28;;;5.68;;
30872;SDS011;17579;42.690;2.586;2023-12-29T15:58:20;6.50;;;5.90;;
30872;SDS011;17579;42.690;2.586;2023-12-29T16:01:09;8.18;;;6.13;;
30872;SDS011;17579;42.690;2.586;2023-12-29T16:04:08;6.45;;;5.35;;
30872;SDS011;17579;42.690;2.586;2023-12-29T16:07:06;6.90;;;5.40;;
30872;SDS011;17579;42.690;2.586;2023-12-29T16:09:45;6.00;;;5.03;;
30872;SDS011;17579;42.690;2.586;2023-12-29T16:13:38;7.82;;;5.50;;
30872;SDS011;17579;42.690;2.586;2023-12-29T16:21:37;7.28;;;5.95;;
30872;SDS011;17579;42.690;2.586;2023-12-29T16:24:38;6.22;;;5.72;;
30872;SDS011;17579;42.690;2.586;2023-12-29T16:27:59;8.40;;;6.00;;
30872;SDS011;17579;42.690;2.586;2023-12-29T16:37:06;6.47;;;5.88;;
30872;SDS011;17579;42.690;2.586;2023-12-29T16:39:42;5.85;;;5.22;;
30872;SDS011;17579;42.690;2.586;2023-12-29T16:42:57;7.43;;;6.07;;
30872;SDS011;17579;42.690;2.586;2023-12-29T16:45:40;6.70;;;6.10;;
30872;SDS011;17579;42.690;2.586;2023-12-29T16:51:37;6.28;;;5.68;;
30872;SDS011;17579;42.690;2.586;2023-12-29T16:57:56;7.55;;;6.05;;
30872;SDS011;17579;42.690;2.586;2023-12-29T17:29:24;7.60;;;6.90;;
30872;SDS011;17579;42.690;2.586;2023-12-29T17:32:15;8.02;;;7.22;;
30872;SDS011;17579;42.690;2.586;2023-12-29T17:35:13;9.40;;;7.75;;
30872;SDS011;17579;42.690;2.586;2023-12-29T17:41:42;10.00;;;8.45;;
30872;SDS011;17579;42.690;2.586;2023-12-29T17:47:08;9.80;;;8.45;;
30872;SDS011;17579;42.690;2.586;2023-12-29T17:47:45;12.25;;;8.77;;
30872;SDS011;17579;42.690;2.586;2023-12-29T17:54:29;9.65;;;8.65;;
30872;SDS011;17579;42.690;2.586;2023-12-29T17:57:00;9.40;;;8.45;;
30872;SDS011;17579;42.690;2.586;2023-12-29T18:03:08;12.23;;;8.60;;
30872;SDS011;17579;42.690;2.586;2023-12-29T18:49:01;10.38;;;9.45;;
30872;SDS011;17579;42.690;2.586;2023-12-29T18:57:56;10.85;;;9.75;;
30872;SDS011;17579;42.690;2.586;2023-12-29T19:00:33;10.25;;;9.25;;
30872;SDS011;17579;42.690;2.586;2023-12-29T19:03:23;10.52;;;9.35;;
30872;SDS011;17579;42.690;2.586;2023-12-29T19:05:55;11.38;;;9.40;;
30872;SDS011;17579;42.690;2.586;2023-12-29T19:08:44;12.00;;;10.52;;
30872;SDS011;17579;42.690;2.586;2023-12-29T19:11:20;10.98;;;9.88;;
30872;SDS011;17579;42.690;2.586;2023-12-29T19:14:26;12.02;;;9.85;;
30872;SDS011;17579;42.690;2.586;2023-12-29T19:17:15;12.27;;;10.23;;
30872;SDS011;17579;42.690;2.586;2023-12-29T19:23:10;10.50;;;9.43;;
30872;SDS011;17579;42.690;2.586;2023-12-29T19:25:56;12.50;;;10.25;;
30872;SDS011;17579;42.690;2.586;2023-12-29T19:29:58;11.60;;;10.02;;
30872;SDS011;17579;42.690;2.586;2023-12-29T19:31:57;10.90;;;9.80;;
30872;SDS011;17579;42.690;2.586;2023-12-29T19:35:15;12.77;;;11.55;;
30872;SDS011;17579;42.690;2.586;2023-12-29T19:41:04;13.98;;;12.60;;
30872;SDS011;17579;42.690;2.586;2023-12-29T19:44:14;17.15;;;12.75;;
30872;SDS011;17579;42.690;2.586;2023-12-29T19:47:16;14.30;;;12.85;;
30872;SDS011;17579;42.690;2.586;2023-12-29T19:52:30;15.55;;;11.93;;
30872;SDS011;17579;42.690;2.586;2023-12-29T19:53:04;13.80;;;10.77;;
30872;SDS011;17579;42.690;2.586;2023-12-29T19:56:27;11.48;;;10.27;;
30872;SDS011;17579;42.690;2.586;2023-12-29T19:59:16;10.85;;;9.70;;
30872;SDS011;17579;42.690;2.586;2023-12-29T20:02:16;13.07;;;10.07;;
30872;SDS011;17579;42.690;2.586;2023-12-29T20:04:57;11.23;;;10.18;;
30872;SDS011;17579;42.690;2.586;2023-12-29T20:10:51;9.82;;;8.82;;
30872;SDS011;17579;42.690;2.586;2023-12-29T20:13:28;10.05;;;9.07;;
30872;SDS011;17579;42.690;2.586;2023-12-29T20:16:43;10.50;;;9.05;;
30872;SDS011;17579;42.690;2.586;2023-12-29T20:19:23;9.93;;;8.90;;
30872;SDS011;17579;42.690;2.586;2023-12-29T20:22:04;9.07;;;8.27;;
30872;SDS011;17579;42.690;2.586;2023-12-29T20:24:57;8.10;;;7.25;;
30872;SDS011;17579;42.690;2.586;2023-12-29T20:27:36;8.23;;;7.13;;
30872;SDS011;17579;42.690;2.586;2023-12-29T20:30:41;7.15;;;6.45;;
30872;SDS011;17579;42.690;2.586;2023-12-29T20:33:17;6.88;;;6.28;;
30872;SDS011;17579;42.690;2.586;2023-12-29T20:36:02;7.32;;;6.35;;
30872;SDS011;17579;42.690;2.586;2023-12-29T20:45:21;6.65;;;6.05;;
30872;SDS011;17579;42.690;2.586;2023-12-29T20:48:00;6.60;;;5.97;;
30872;SDS011;17579;42.690;2.586;2023-12-29T20:51:30;6.40;;;5.80;;
30872;SDS011;17579;42.690;2.586;2023-12-29T21:00:32;7.05;;;6.10;;
30872;SDS011;17579;42.690;2.586;2023-12-29T21:03:37;7.25;;;6.55;;
30872;SDS011;17579;42.690;2.586;2023-12-29T21:06:16;8.13;;;7.05;;
30872;SDS011;17579;42.690;2.586;2023-12-29T21:08:54;7.43;;;6.10;;
30872;SDS011;17579;42.690;2.586;2023-12-29T21:14:25;7.88;;;7.03;;
30872;SDS011;17579;42.690;2.586;2023-12-29T21:17:16;7.93;;;6.70;;
30872;SDS011;17579;42.690;2.586;2023-12-29T21:19:52;9.32;;;7.18;;
30872;SDS011;17579;42.690;2.586;2023-12-29T21:23:04;8.43;;;6.47;;
30872;SDS011;17579;42.690;2.586;2023-12-29T21:29:39;6.80;;;6.10;;
30872;SDS011;17579;42.690;2.586;2023-12-29T21:35:08;8.20;;;6.22;;
30872;SDS011;17579;42.690;2.586;2023-12-29T21:37:57;8.55;;;5.78;;
30872;SDS011;17579;42.690;2.586;2023-12-29T21:40:48;7.40;;;6.18;;
30872;SDS011;17579;42.690;2.586;2023-12-29T21:49:22;7.00;;;6.28;;
30872;SDS011;17579;42.690;2.586;2023-12-29T21:52:04;8.55;;;6.75;;
30872;SDS011;17579;42.690;2.586;2023-12-29T21:54:39;7.05;;;6.43;;
30872;SDS011;17579;42.690;2.586;2023-12-29T21:57:31;8.40;;;7.55;;
30872;SDS011;17579;42.690;2.586;2023-12-29T22:00:30;9.35;;;7.38;;
30872;SDS011;17579;42.690;2.586;2023-12-29T22:03:08;8.77;;;7.88;;
30872;SDS011;17579;42.690;2.586;2023-12-29T22:05:37;9.23;;;8.32;;
30872;SDS011;17579;42.690;2.586;2023-12-29T22:08:15;9.13;;;8.23;;
30872;SDS011;17579;42.690;2.586;2023-12-29T22:11:03;8.23;;;7.43;;
30872;SDS011;17579;42.690;2.586;2023-12-29T22:14:26;8.70;;;7.90;;
30872;SDS011;17579;42.690;2.586;2023-12-29T22:16:58;8.30;;;7.50;;
30872;SDS011;17579;42.690;2.586;2023-12-29T22:19:49;9.35;;;8.00;;
30872;SDS011;17579;42.690;2.586;2023-12-29T22:22:18;7.90;;;7.18;;
30872;SDS011;17579;42.690;2.586;2023-12-29T22:25:12;8.20;;;7.40;;
30872;SDS011;17579;42.690;2.586;2023-12-29T22:27:43;7.93;;;7.22;;
30872;SDS011;17579;42.690;2.586;2023-12-29T22:30:35;7.75;;;6.78;;
30872;SDS011;17579;42.690;2.586;2023-12-29T22:33:10;7.40;;;6.70;;
30872;SDS011;17579;42.690;2.586;2023-12-29T22:35:36;7.55;;;6.85;;
30872;SDS011;17579;42.690;2.586;2023-12-29T22:38:22;8.02;;;6.78;;
30872;SDS011;17579;42.690;2.586;2023-12-29T22:44:18;7.03;;;6.28;;
30872;SDS011;17579;42.690;2.586;2023-12-29T22:47:02;7.40;;;6.32;;
30872;SDS011;17579;42.690;2.586;2023-12-29T22:49:35;7.32;;;5.80;;
30872;SDS011;17579;42.690;2.586;2023-12-29T22:52:13;8.45;;;6.10;;
30872;SDS011;17579;42.690;2.586;2023-12-29T22:54:59;5.95;;;5.35;;
30872;SDS011;17579;42.690;2.586;2023-12-29T23:00:50;7.18;;;5.93;;
30872;SDS011;17579;42.690;2.586;2023-12-29T23:03:40;6.32;;;5.72;;
30872;SDS011;17579;42.690;2.586;2023-12-29T23:06:51;5.80;;;5.25;;
30872;SDS011;17579;42.690;2.586;2023-12-29T23:09:28;5.38;;;4.88;;
30872;SDS011;17579;42.690;2.586;2023-12-29T23:11:59;6.88;;;6.28;;
30872;SDS011;17579;42.690;2.586;2023-12-29T23:17:40;6.63;;;5.78;;
30872;SDS011;17579;42.690;2.586;2023-12-29T23:20:29;5.78;;;5.28;;
30872;SDS011;17579;42.690;2.586;2023-12-29T23:24:02;5.45;;;4.90;;
30872;SDS011;17579;42.690;2.586;2023-12-29T23:26:21;5.47;;;4.97;;
30872;SDS011;17579;42.690;2.586;2023-12-29T23:29:21;5.80;;;5.18;;
30872;SDS011;17579;42.690;2.586;2023-12-29T23:41:14;5.20;;;4.75;;
30872;SDS011;17579;42.690;2.586;2023-12-29T23:44:04;5.72;;;4.43;;
30872;SDS011;17579;42.690;2.586;2023-12-29T23:49:40;5.43;;;4.28;;
30872;SDS011;17579;42.690;2.586;2023-12-29T23:52:18;5.85;;;4.72;;
30872;SDS011;17579;42.690;2.586;2023-12-29T23:58:05;5.35;;;4.85;;
